sensor_id;sensor_type;location;lat;lon;timestamp;P1;durP1;ratioP1;P2;durP2;ratioP2
9388;SDS011;4734;52.778;6.798;2023-02-19T00:01:37;22.30;;;14.00;;
9388;SDS011;4734;52.778;6.798;2023-02-19T00:04:23;19.00;;;13.88;;
9388;SDS011;4734;52.778;6.798;2023-02-19T00:07:08;19.58;;;14.68;;
9388;SDS011;4734;52.778;6.798;2023-02-19T00:09:55;20.95;;;13.93;;
9388;SDS011;4734;52.778;6.798;2023-02-19T00:12:41;19.92;;;14.57;;
9388;SDS011;4734;52.778;6.798;2023-02-19T00:15:27;18.90;;;13.60;;
9388;SDS011;4734;52.778;6.798;2023-02-19T00:18:13;18.98;;;13.38;;
9388;SDS011;4734;52.778;6.798;2023-02-19T00:20:59;18.92;;;13.73;;
9388;SDS011;4734;52.778;6.798;2023-02-19T00:23:47;18.92;;;12.85;;
9388;SDS011;4734;52.778;6.798;2023-02-19T00:26:35;23.42;;;13.73;;
9388;SDS011;4734;52.778;6.798;2023-02-19T00:29:23;17.45;;;13.65;;
9388;SDS011;4734;52.778;6.798;2023-02-19T00:32:09;22.23;;;14.13;;
9388;SDS011;4734;52.778;6.798;2023-02-19T00:34:55;23.80;;;14.02;;
9388;SDS011;4734;52.778;6.798;2023-02-19T00:37:40;23.85;;;14.20;;
9388;SDS011;4734;52.778;6.798;2023-02-19T00:40:26;21.67;;;13.40;;
9388;SDS011;4734;52.778;6.798;2023-02-19T00:43:13;19.00;;;13.60;;
9388;SDS011;4734;52.778;6.798;2023-02-19T00:45:59;23.35;;;15.88;;
9388;SDS011;4734;52.778;6.798;2023-02-19T00:48:45;23.42;;;14.27;;
9388;SDS011;4734;52.778;6.798;2023-02-19T00:51:31;26.92;;;16.17;;
9388;SDS011;4734;52.778;6.798;2023-02-19T00:54:18;23.92;;;15.88;;
9388;SDS011;4734;52.778;6.798;2023-02-19T00:57:05;25.92;;;15.48;;
9388;SDS011;4734;52.778;6.798;2023-02-19T00:59:52;24.33;;;15.00;;
9388;SDS011;4734;52.778;6.798;2023-02-19T01:02:37;27.77;;;15.52;;
9388;SDS011;4734;52.778;6.798;2023-02-19T01:05:23;26.20;;;15.23;;
9388;SDS011;4734;52.778;6.798;2023-02-19T01:08:09;23.33;;;15.03;;
9388;SDS011;4734;52.778;6.798;2023-02-19T01:10:55;26.52;;;16.35;;
9388;SDS011;4734;52.778;6.798;2023-02-19T01:13:41;21.88;;;15.10;;
9388;SDS011;4734;52.778;6.798;2023-02-19T01:16:28;24.13;;;14.85;;
9388;SDS011;4734;52.778;6.798;2023-02-19T01:19:14;25.38;;;15.38;;
9388;SDS011;4734;52.778;6.798;2023-02-19T01:22:00;23.88;;;14.95;;
9388;SDS011;4734;52.778;6.798;2023-02-19T01:24:45;27.15;;;15.13;;
9388;SDS011;4734;52.778;6.798;2023-02-19T01:27:31;26.10;;;15.20;;
9388;SDS011;4734;52.778;6.798;2023-02-19T01:30:16;25.95;;;15.20;;
9388;SDS011;4734;52.778;6.798;2023-02-19T01:33:04;22.40;;;14.88;;
9388;SDS011;4734;52.778;6.798;2023-02-19T01:35:49;26.05;;;14.38;;
9388;SDS011;4734;52.778;6.798;2023-02-19T01:38:35;24.58;;;14.65;;
9388;SDS011;4734;52.778;6.798;2023-02-19T01:41:22;22.83;;;14.90;;
9388;SDS011;4734;52.778;6.798;2023-02-19T01:47:08;24.77;;;12.05;;
9388;SDS011;4734;52.778;6.798;2023-02-19T01:49:55;21.27;;;13.25;;
9388;SDS011;4734;52.778;6.798;2023-02-19T01:52:41;20.38;;;12.30;;
9388;SDS011;4734;52.778;6.798;2023-02-19T01:55:27;20.55;;;11.20;;
9388;SDS011;4734;52.778;6.798;2023-02-19T01:58:13;22.73;;;10.95;;
9388;SDS011;4734;52.778;6.798;2023-02-19T02:00:59;18.77;;;11.02;;
9388;SDS011;4734;52.778;6.798;2023-02-19T02:03:47;18.55;;;10.15;;
9388;SDS011;4734;52.778;6.798;2023-02-19T02:06:37;16.30;;;9.55;;
9388;SDS011;4734;52.778;6.798;2023-02-19T02:09:25;17.23;;;9.10;;
9388;SDS011;4734;52.778;6.798;2023-02-19T02:12:29;18.13;;;8.52;;
9388;SDS011;4734;52.778;6.798;2023-02-19T02:15:15;16.52;;;8.30;;
9388;SDS011;4734;52.778;6.798;2023-02-19T02:18:03;13.70;;;8.52;;
9388;SDS011;4734;52.778;6.798;2023-02-19T02:20:56;14.85;;;8.65;;
9388;SDS011;4734;52.778;6.798;2023-02-19T02:23:48;12.90;;;7.90;;
9388;SDS011;4734;52.778;6.798;2023-02-19T02:26:45;13.77;;;7.80;;
9388;SDS011;4734;52.778;6.798;2023-02-19T02:32:47;15.43;;;7.90;;
9388;SDS011;4734;52.778;6.798;2023-02-19T02:35:38;13.73;;;6.72;;
9388;SDS011;4734;52.778;6.798;2023-02-19T02:38:26;14.70;;;6.85;;
9388;SDS011;4734;52.778;6.798;2023-02-19T02:41:13;13.15;;;6.63;;
9388;SDS011;4734;52.778;6.798;2023-02-19T02:43:59;13.60;;;5.63;;
9388;SDS011;4734;52.778;6.798;2023-02-19T02:46:45;9.52;;;6.05;;
9388;SDS011;4734;52.778;6.798;2023-02-19T02:49:32;8.43;;;5.63;;
9388;SDS011;4734;52.778;6.798;2023-02-19T02:52:40;12.98;;;6.78;;
9388;SDS011;4734;52.778;6.798;2023-02-19T02:55:47;8.27;;;5.68;;
9388;SDS011;4734;52.778;6.798;2023-02-19T02:58:34;8.48;;;5.55;;
9388;SDS011;4734;52.778;6.798;2023-02-19T03:01:21;10.60;;;5.82;;
9388;SDS011;4734;52.778;6.798;2023-02-19T03:04:27;11.98;;;6.13;;
9388;SDS011;4734;52.778;6.798;2023-02-19T03:07:16;6.60;;;5.60;;
9388;SDS011;4734;52.778;6.798;2023-02-19T03:10:02;10.48;;;5.32;;
9388;SDS011;4734;52.778;6.798;2023-02-19T03:12:50;9.57;;;5.55;;
9388;SDS011;4734;52.778;6.798;2023-02-19T03:15:57;14.07;;;5.15;;
9388;SDS011;4734;52.778;6.798;2023-02-19T03:18:59;10.47;;;5.17;;
9388;SDS011;4734;52.778;6.798;2023-02-19T03:22:04;6.25;;;5.18;;
9388;SDS011;4734;52.778;6.798;2023-02-19T03:24:55;8.02;;;5.70;;
9388;SDS011;4734;52.778;6.798;2023-02-19T03:28:00;7.75;;;5.25;;
9388;SDS011;4734;52.778;6.798;2023-02-19T03:30:48;9.43;;;5.00;;
9388;SDS011;4734;52.778;6.798;2023-02-19T03:33:35;7.60;;;5.20;;
9388;SDS011;4734;52.778;6.798;2023-02-19T03:36:23;9.80;;;5.55;;
9388;SDS011;4734;52.778;6.798;2023-02-19T03:39:12;8.40;;;6.03;;
9388;SDS011;4734;52.778;6.798;2023-02-19T03:42:01;13.10;;;5.70;;
9388;SDS011;4734;52.778;6.798;2023-02-19T03:44:52;11.73;;;6.05;;
9388;SDS011;4734;52.778;6.798;2023-02-19T03:47:44;11.68;;;5.95;;
9388;SDS011;4734;52.778;6.798;2023-02-19T03:50:34;9.23;;;5.75;;
9388;SDS011;4734;52.778;6.798;2023-02-19T03:53:22;7.88;;;5.10;;
9388;SDS011;4734;52.778;6.798;2023-02-19T03:56:12;7.15;;;5.35;;
9388;SDS011;4734;52.778;6.798;2023-02-19T03:59:08;8.45;;;5.18;;
9388;SDS011;4734;52.778;6.798;2023-02-19T04:01:57;8.20;;;5.28;;
9388;SDS011;4734;52.778;6.798;2023-02-19T04:04:46;8.65;;;5.85;;
9388;SDS011;4734;52.778;6.798;2023-02-19T04:07:35;12.45;;;5.68;;
9388;SDS011;4734;52.778;6.798;2023-02-19T04:10:22;8.18;;;5.32;;
9388;SDS011;4734;52.778;6.798;2023-02-19T04:13:11;8.47;;;5.50;;
9388;SDS011;4734;52.778;6.798;2023-02-19T04:16:01;9.60;;;5.63;;
9388;SDS011;4734;52.778;6.798;2023-02-19T04:18:48;7.55;;;5.72;;
9388;SDS011;4734;52.778;6.798;2023-02-19T04:21:35;7.28;;;4.07;;
9388;SDS011;4734;52.778;6.798;2023-02-19T04:24:23;2.90;;;2.70;;
9388;SDS011;4734;52.778;6.798;2023-02-19T04:27:11;3.42;;;2.25;;
9388;SDS011;4734;52.778;6.798;2023-02-19T04:29:57;2.67;;;2.10;;
9388;SDS011;4734;52.778;6.798;2023-02-19T04:32:44;2.38;;;2.17;;
9388;SDS011;4734;52.778;6.798;2023-02-19T04:35:29;2.45;;;2.30;;
9388;SDS011;4734;52.778;6.798;2023-02-19T04:38:15;2.70;;;2.50;;
9388;SDS011;4734;52.778;6.798;2023-02-19T04:41:01;2.10;;;2.00;;
9388;SDS011;4734;52.778;6.798;2023-02-19T04:43:47;2.15;;;2.05;;
9388;SDS011;4734;52.778;6.798;2023-02-19T04:46:32;2.60;;;2.40;;
9388;SDS011;4734;52.778;6.798;2023-02-19T04:49:19;2.40;;;2.20;;
9388;SDS011;4734;52.778;6.798;2023-02-19T04:52:05;2.10;;;2.00;;
9388;SDS011;4734;52.778;6.798;2023-02-19T04:54:51;2.17;;;2.03;;
9388;SDS011;4734;52.778;6.798;2023-02-19T04:57:37;2.20;;;2.10;;
9388;SDS011;4734;52.778;6.798;2023-02-19T05:00:23;2.20;;;2.10;;
9388;SDS011;4734;52.778;6.798;2023-02-19T05:03:08;2.63;;;2.42;;
9388;SDS011;4734;52.778;6.798;2023-02-19T05:05:55;2.20;;;2.10;;
9388;SDS011;4734;52.778;6.798;2023-02-19T05:08:41;2.45;;;2.25;;
9388;SDS011;4734;52.778;6.798;2023-02-19T05:11:27;2.17;;;2.08;;
9388;SDS011;4734;52.778;6.798;2023-02-19T05:14:13;2.25;;;1.90;;
9388;SDS011;4734;52.778;6.798;2023-02-19T05:16:59;2.30;;;2.17;;
9388;SDS011;4734;52.778;6.798;2023-02-19T05:19:45;2.08;;;1.98;;
9388;SDS011;4734;52.778;6.798;2023-02-19T05:22:32;1.65;;;1.55;;
9388;SDS011;4734;52.778;6.798;2023-02-19T05:25:18;1.70;;;1.60;;
9388;SDS011;4734;52.778;6.798;2023-02-19T05:28:04;2.30;;;2.20;;
9388;SDS011;4734;52.778;6.798;2023-02-19T05:31:03;1.70;;;1.60;;
9388;SDS011;4734;52.778;6.798;2023-02-19T05:33:49;2.28;;;2.08;;
9388;SDS011;4734;52.778;6.798;2023-02-19T05:36:35;2.28;;;2.15;;
9388;SDS011;4734;52.778;6.798;2023-02-19T05:39:23;2.30;;;2.20;;
9388;SDS011;4734;52.778;6.798;2023-02-19T05:42:09;2.10;;;2.00;;
9388;SDS011;4734;52.778;6.798;2023-02-19T05:44:54;2.53;;;2.33;;
9388;SDS011;4734;52.778;6.798;2023-02-19T05:47:40;2.57;;;2.37;;
9388;SDS011;4734;52.778;6.798;2023-02-19T05:50:26;2.70;;;2.50;;
9388;SDS011;4734;52.778;6.798;2023-02-19T05:53:12;2.40;;;2.20;;
9388;SDS011;4734;52.778;6.798;2023-02-19T05:55:59;2.37;;;2.17;;
9388;SDS011;4734;52.778;6.798;2023-02-19T05:58:45;5.17;;;2.30;;
9388;SDS011;4734;52.778;6.798;2023-02-19T06:01:30;2.25;;;2.05;;
9388;SDS011;4734;52.778;6.798;2023-02-19T06:04:17;5.33;;;2.50;;
9388;SDS011;4734;52.778;6.798;2023-02-19T06:07:03;2.77;;;2.57;;
9388;SDS011;4734;52.778;6.798;2023-02-19T06:09:49;2.20;;;2.00;;
9388;SDS011;4734;52.778;6.798;2023-02-19T06:12:36;2.72;;;2.33;;
9388;SDS011;4734;52.778;6.798;2023-02-19T06:15:21;2.43;;;2.23;;
9388;SDS011;4734;52.778;6.798;2023-02-19T06:18:07;2.60;;;2.40;;
9388;SDS011;4734;52.778;6.798;2023-02-19T06:20:53;2.50;;;2.30;;
9388;SDS011;4734;52.778;6.798;2023-02-19T06:23:39;2.80;;;2.60;;
9388;SDS011;4734;52.778;6.798;2023-02-19T06:26:24;2.53;;;2.33;;
9388;SDS011;4734;52.778;6.798;2023-02-19T06:29:11;2.60;;;2.20;;
9388;SDS011;4734;52.778;6.798;2023-02-19T06:31:57;2.53;;;2.33;;
9388;SDS011;4734;52.778;6.798;2023-02-19T06:34:43;2.87;;;2.57;;
9388;SDS011;4734;52.778;6.798;2023-02-19T06:37:29;2.73;;;2.53;;
9388;SDS011;4734;52.778;6.798;2023-02-19T06:40:15;4.00;;;2.40;;
9388;SDS011;4734;52.778;6.798;2023-02-19T06:43:01;2.70;;;2.50;;
9388;SDS011;4734;52.778;6.798;2023-02-19T06:45:48;2.93;;;2.37;;
9388;SDS011;4734;52.778;6.798;2023-02-19T06:48:34;3.13;;;2.50;;
9388;SDS011;4734;52.778;6.798;2023-02-19T06:51:20;3.30;;;2.30;;
9388;SDS011;4734;52.778;6.798;2023-02-19T06:54:08;3.90;;;2.40;;
9388;SDS011;4734;52.778;6.798;2023-02-19T06:56:54;2.40;;;2.20;;
9388;SDS011;4734;52.778;6.798;2023-02-19T06:59:41;3.13;;;2.50;;
9388;SDS011;4734;52.778;6.798;2023-02-19T07:02:28;3.00;;;2.47;;
9388;SDS011;4734;52.778;6.798;2023-02-19T07:05:14;2.70;;;2.33;;
9388;SDS011;4734;52.778;6.798;2023-02-19T07:08:01;2.70;;;2.50;;
9388;SDS011;4734;52.778;6.798;2023-02-19T07:10:52;2.73;;;2.27;;
9388;SDS011;4734;52.778;6.798;2023-02-19T07:13:39;2.30;;;2.00;;
9388;SDS011;4734;52.778;6.798;2023-02-19T07:16:25;2.93;;;2.30;;
9388;SDS011;4734;52.778;6.798;2023-02-19T07:19:12;3.13;;;2.40;;
9388;SDS011;4734;52.778;6.798;2023-02-19T07:21:58;2.43;;;2.23;;
9388;SDS011;4734;52.778;6.798;2023-02-19T07:24:44;3.17;;;2.40;;
9388;SDS011;4734;52.778;6.798;2023-02-19T07:27:29;2.90;;;2.57;;
9388;SDS011;4734;52.778;6.798;2023-02-19T07:30:16;4.40;;;2.80;;
9388;SDS011;4734;52.778;6.798;2023-02-19T07:33:02;3.33;;;2.30;;
9388;SDS011;4734;52.778;6.798;2023-02-19T07:35:49;2.87;;;2.60;;
9388;SDS011;4734;52.778;6.798;2023-02-19T07:38:35;3.53;;;2.83;;
9388;SDS011;4734;52.778;6.798;2023-02-19T07:41:21;4.27;;;2.90;;
9388;SDS011;4734;52.778;6.798;2023-02-19T07:44:07;3.30;;;2.80;;
9388;SDS011;4734;52.778;6.798;2023-02-19T07:46:56;3.07;;;2.77;;
9388;SDS011;4734;52.778;6.798;2023-02-19T07:49:41;2.77;;;2.57;;
9388;SDS011;4734;52.778;6.798;2023-02-19T07:52:28;4.03;;;3.30;;
9388;SDS011;4734;52.778;6.798;2023-02-19T07:55:14;4.13;;;2.83;;
9388;SDS011;4734;52.778;6.798;2023-02-19T07:58:00;4.23;;;2.87;;
9388;SDS011;4734;52.778;6.798;2023-02-19T08:00:46;3.30;;;2.93;;
9388;SDS011;4734;52.778;6.798;2023-02-19T08:03:32;3.90;;;3.00;;
9388;SDS011;4734;52.778;6.798;2023-02-19T08:06:16;4.30;;;3.00;;
9388;SDS011;4734;52.778;6.798;2023-02-19T08:09:03;3.13;;;2.83;;
9388;SDS011;4734;52.778;6.798;2023-02-19T08:11:49;3.37;;;2.93;;
9388;SDS011;4734;52.778;6.798;2023-02-19T08:14:53;3.90;;;2.70;;
9388;SDS011;4734;52.778;6.798;2023-02-19T08:17:38;2.70;;;2.50;;
9388;SDS011;4734;52.778;6.798;2023-02-19T08:20:24;3.17;;;2.63;;
9388;SDS011;4734;52.778;6.798;2023-02-19T08:23:10;3.00;;;2.70;;
9388;SDS011;4734;52.778;6.798;2023-02-19T08:25:57;3.93;;;2.60;;
9388;SDS011;4734;52.778;6.798;2023-02-19T08:28:43;2.90;;;2.60;;
9388;SDS011;4734;52.778;6.798;2023-02-19T08:31:28;4.93;;;3.53;;
9388;SDS011;4734;52.778;6.798;2023-02-19T08:34:14;3.80;;;3.10;;
9388;SDS011;4734;52.778;6.798;2023-02-19T08:36:59;3.53;;;2.90;;
9388;SDS011;4734;52.778;6.798;2023-02-19T08:39:45;3.47;;;3.17;;
9388;SDS011;4734;52.778;6.798;2023-02-19T08:42:32;3.30;;;3.00;;
9388;SDS011;4734;52.778;6.798;2023-02-19T08:45:18;3.40;;;3.10;;
9388;SDS011;4734;52.778;6.798;2023-02-19T08:48:04;3.07;;;2.77;;
9388;SDS011;4734;52.778;6.798;2023-02-19T08:50:54;4.75;;;2.80;;
9388;SDS011;4734;52.778;6.798;2023-02-19T08:53:40;3.80;;;3.40;;
9388;SDS011;4734;52.778;6.798;2023-02-19T08:56:26;2.87;;;2.67;;
9388;SDS011;4734;52.778;6.798;2023-02-19T08:59:13;3.93;;;3.00;;
9388;SDS011;4734;52.778;6.798;2023-02-19T09:01:59;3.40;;;3.10;;
9388;SDS011;4734;52.778;6.798;2023-02-19T09:04:45;4.72;;;3.00;;
9388;SDS011;4734;52.778;6.798;2023-02-19T09:07:31;3.10;;;2.20;;
9388;SDS011;4734;52.778;6.798;2023-02-19T09:10:17;2.60;;;2.40;;
9388;SDS011;4734;52.778;6.798;2023-02-19T09:13:03;3.78;;;2.83;;
9388;SDS011;4734;52.778;6.798;2023-02-19T09:15:50;2.77;;;2.57;;
9388;SDS011;4734;52.778;6.798;2023-02-19T09:18:36;3.10;;;2.70;;
9388;SDS011;4734;52.778;6.798;2023-02-19T09:21:22;2.70;;;2.47;;
9388;SDS011;4734;52.778;6.798;2023-02-19T09:24:07;2.77;;;2.30;;
9388;SDS011;4734;52.778;6.798;2023-02-19T09:26:54;2.90;;;2.40;;
9388;SDS011;4734;52.778;6.798;2023-02-19T09:29:40;2.50;;;2.30;;
9388;SDS011;4734;52.778;6.798;2023-02-19T09:32:27;2.43;;;2.23;;
9388;SDS011;4734;52.778;6.798;2023-02-19T09:35:14;2.60;;;2.20;;
9388;SDS011;4734;52.778;6.798;2023-02-19T09:38:00;3.30;;;2.60;;
9388;SDS011;4734;52.778;6.798;2023-02-19T09:40:46;3.00;;;2.23;;
9388;SDS011;4734;52.778;6.798;2023-02-19T09:43:32;2.10;;;2.00;;
9388;SDS011;4734;52.778;6.798;2023-02-19T09:46:21;2.37;;;2.20;;
9388;SDS011;4734;52.778;6.798;2023-02-19T09:49:12;2.13;;;1.97;;
9388;SDS011;4734;52.778;6.798;2023-02-19T09:51:59;2.13;;;2.03;;
9388;SDS011;4734;52.778;6.798;2023-02-19T09:54:47;2.77;;;2.10;;
9388;SDS011;4734;52.778;6.798;2023-02-19T09:57:33;1.48;;;1.13;;
9388;SDS011;4734;52.778;6.798;2023-02-19T10:00:20;1.53;;;1.43;;
9388;SDS011;4734;52.778;6.798;2023-02-19T10:03:10;1.43;;;1.33;;
9388;SDS011;4734;52.778;6.798;2023-02-19T10:05:58;1.50;;;1.40;;
9388;SDS011;4734;52.778;6.798;2023-02-19T10:08:46;1.40;;;1.30;;
9388;SDS011;4734;52.778;6.798;2023-02-19T10:11:33;0.97;;;0.90;;
9388;SDS011;4734;52.778;6.798;2023-02-19T10:14:20;2.50;;;1.20;;
9388;SDS011;4734;52.778;6.798;2023-02-19T10:17:10;2.23;;;1.70;;
9388;SDS011;4734;52.778;6.798;2023-02-19T10:19:58;1.53;;;1.43;;
9388;SDS011;4734;52.778;6.798;2023-02-19T10:22:47;1.58;;;1.48;;
9388;SDS011;4734;52.778;6.798;2023-02-19T10:25:33;2.73;;;1.87;;
9388;SDS011;4734;52.778;6.798;2023-02-19T10:28:20;1.43;;;1.33;;
9388;SDS011;4734;52.778;6.798;2023-02-19T10:31:10;1.77;;;1.60;;
9388;SDS011;4734;52.778;6.798;2023-02-19T10:33:59;1.33;;;1.23;;
9388;SDS011;4734;52.778;6.798;2023-02-19T10:36:46;1.70;;;1.60;;
9388;SDS011;4734;52.778;6.798;2023-02-19T10:39:37;1.60;;;1.50;;
9388;SDS011;4734;52.778;6.798;2023-02-19T10:42:25;1.77;;;1.65;;
9388;SDS011;4734;52.778;6.798;2023-02-19T10:45:12;1.30;;;1.20;;
9388;SDS011;4734;52.778;6.798;2023-02-19T10:48:01;1.73;;;1.50;;
9388;SDS011;4734;52.778;6.798;2023-02-19T10:50:49;1.92;;;1.50;;
9388;SDS011;4734;52.778;6.798;2023-02-19T10:53:40;3.05;;;1.60;;
9388;SDS011;4734;52.778;6.798;2023-02-19T10:56:27;1.40;;;1.30;;
9388;SDS011;4734;52.778;6.798;2023-02-19T10:59:15;1.20;;;1.10;;
9388;SDS011;4734;52.778;6.798;2023-02-19T11:02:14;1.42;;;1.20;;
9388;SDS011;4734;52.778;6.798;2023-02-19T11:05:14;1.00;;;1.00;;
9388;SDS011;4734;52.778;6.798;2023-02-19T11:08:02;1.60;;;1.50;;
9388;SDS011;4734;52.778;6.798;2023-02-19T11:10:48;1.67;;;1.23;;
9388;SDS011;4734;52.778;6.798;2023-02-19T11:13:36;1.20;;;1.10;;
9388;SDS011;4734;52.778;6.798;2023-02-19T11:16:22;1.00;;;1.00;;
9388;SDS011;4734;52.778;6.798;2023-02-19T11:19:25;1.38;;;1.27;;
9388;SDS011;4734;52.778;6.798;2023-02-19T11:22:19;2.80;;;1.40;;
9388;SDS011;4734;52.778;6.798;2023-02-19T11:25:05;2.22;;;1.20;;
9388;SDS011;4734;52.778;6.798;2023-02-19T11:27:52;4.43;;;1.42;;
9388;SDS011;4734;52.778;6.798;2023-02-19T11:30:41;0.93;;;0.93;;
9388;SDS011;4734;52.778;6.798;2023-02-19T11:33:26;1.27;;;0.95;;
9388;SDS011;4734;52.778;6.798;2023-02-19T11:39:20;1.33;;;0.90;;
9388;SDS011;4734;52.778;6.798;2023-02-19T11:45:17;0.95;;;0.95;;
9388;SDS011;4734;52.778;6.798;2023-02-19T11:51:17;1.67;;;1.00;;
9388;SDS011;4734;52.778;6.798;2023-02-19T11:54:09;0.77;;;0.77;;
9388;SDS011;4734;52.778;6.798;2023-02-19T11:57:01;0.70;;;0.70;;
9388;SDS011;4734;52.778;6.798;2023-02-19T11:59:50;1.10;;;0.70;;
9388;SDS011;4734;52.778;6.798;2023-02-19T12:02:47;0.90;;;0.70;;
9388;SDS011;4734;52.778;6.798;2023-02-19T12:05:42;1.27;;;0.98;;
9388;SDS011;4734;52.778;6.798;2023-02-19T12:08:35;0.80;;;0.80;;
9388;SDS011;4734;52.778;6.798;2023-02-19T12:11:31;1.13;;;1.00;;
9388;SDS011;4734;52.778;6.798;2023-02-19T12:14:33;0.80;;;0.70;;
9388;SDS011;4734;52.778;6.798;2023-02-19T12:17:30;1.58;;;1.10;;
9388;SDS011;4734;52.778;6.798;2023-02-19T12:20:23;1.77;;;0.75;;
9388;SDS011;4734;52.778;6.798;2023-02-19T12:23:20;1.35;;;0.85;;
9388;SDS011;4734;52.778;6.798;2023-02-19T12:26:15;1.50;;;0.75;;
9388;SDS011;4734;52.778;6.798;2023-02-19T12:29:13;0.88;;;0.80;;
9388;SDS011;4734;52.778;6.798;2023-02-19T12:32:06;0.95;;;0.82;;
9388;SDS011;4734;52.778;6.798;2023-02-19T12:35:10;1.38;;;0.73;;
9388;SDS011;4734;52.778;6.798;2023-02-19T12:38:01;0.80;;;0.80;;
9388;SDS011;4734;52.778;6.798;2023-02-19T12:41:00;0.80;;;0.80;;
9388;SDS011;4734;52.778;6.798;2023-02-19T12:43:54;1.02;;;0.98;;
9388;SDS011;4734;52.778;6.798;2023-02-19T12:46:42;3.50;;;3.30;;
9388;SDS011;4734;52.778;6.798;2023-02-19T12:49:29;0.70;;;0.70;;
9388;SDS011;4734;52.778;6.798;2023-02-19T12:52:17;2.63;;;2.42;;
9388;SDS011;4734;52.778;6.798;2023-02-19T12:55:06;1.58;;;0.90;;
9388;SDS011;4734;52.778;6.798;2023-02-19T12:57:59;1.08;;;0.90;;
9388;SDS011;4734;52.778;6.798;2023-02-19T13:00:48;1.55;;;0.80;;
9388;SDS011;4734;52.778;6.798;2023-02-19T13:03:36;1.55;;;0.90;;
9388;SDS011;4734;52.778;6.798;2023-02-19T13:06:26;1.38;;;1.10;;
9388;SDS011;4734;52.778;6.798;2023-02-19T13:09:17;0.70;;;0.70;;
9388;SDS011;4734;52.778;6.798;2023-02-19T13:12:06;0.70;;;0.70;;
9388;SDS011;4734;52.778;6.798;2023-02-19T13:14:55;2.10;;;1.10;;
9388;SDS011;4734;52.778;6.798;2023-02-19T13:17:43;0.90;;;0.90;;
9388;SDS011;4734;52.778;6.798;2023-02-19T13:20:30;1.85;;;1.00;;
9388;SDS011;4734;52.778;6.798;2023-02-19T13:23:17;1.20;;;1.10;;
9388;SDS011;4734;52.778;6.798;2023-02-19T13:26:29;1.65;;;1.13;;
9388;SDS011;4734;52.778;6.798;2023-02-19T13:29:26;0.90;;;0.90;;
9388;SDS011;4734;52.778;6.798;2023-02-19T13:32:19;1.17;;;0.90;;
9388;SDS011;4734;52.778;6.798;2023-02-19T13:35:19;1.27;;;0.95;;
9388;SDS011;4734;52.778;6.798;2023-02-19T13:38:06;1.10;;;1.00;;
9388;SDS011;4734;52.778;6.798;2023-02-19T13:40:55;2.75;;;1.00;;
9388;SDS011;4734;52.778;6.798;2023-02-19T13:43:41;1.73;;;1.10;;
9388;SDS011;4734;52.778;6.798;2023-02-19T13:46:39;1.25;;;1.02;;
9388;SDS011;4734;52.778;6.798;2023-02-19T13:52:36;1.30;;;1.00;;
9388;SDS011;4734;52.778;6.798;2023-02-19T14:04:50;2.08;;;1.17;;
9388;SDS011;4734;52.778;6.798;2023-02-19T14:10:52;1.35;;;1.25;;
9388;SDS011;4734;52.778;6.798;2023-02-19T14:16:57;1.00;;;1.00;;
9388;SDS011;4734;52.778;6.798;2023-02-19T14:19:48;1.58;;;1.00;;
9388;SDS011;4734;52.778;6.798;2023-02-19T14:22:58;1.60;;;0.90;;
9388;SDS011;4734;52.778;6.798;2023-02-19T14:25:46;1.42;;;1.00;;
9388;SDS011;4734;52.778;6.798;2023-02-19T14:28:39;0.98;;;0.70;;
9388;SDS011;4734;52.778;6.798;2023-02-19T14:31:26;1.10;;;1.00;;
9388;SDS011;4734;52.778;6.798;2023-02-19T14:34:14;1.15;;;0.70;;
9388;SDS011;4734;52.778;6.798;2023-02-19T14:37:02;1.38;;;0.65;;
9388;SDS011;4734;52.778;6.798;2023-02-19T14:39:49;1.95;;;1.00;;
9388;SDS011;4734;52.778;6.798;2023-02-19T14:42:37;0.98;;;0.90;;
9388;SDS011;4734;52.778;6.798;2023-02-19T14:45:24;0.98;;;0.90;;
9388;SDS011;4734;52.778;6.798;2023-02-19T14:48:14;1.25;;;1.15;;
9388;SDS011;4734;52.778;6.798;2023-02-19T14:51:02;2.40;;;0.85;;
9388;SDS011;4734;52.778;6.798;2023-02-19T14:53:48;0.85;;;0.80;;
9388;SDS011;4734;52.778;6.798;2023-02-19T14:56:36;2.00;;;0.90;;
9388;SDS011;4734;52.778;6.798;2023-02-19T14:59:23;1.15;;;0.80;;
9388;SDS011;4734;52.778;6.798;2023-02-19T15:02:14;0.80;;;0.80;;
9388;SDS011;4734;52.778;6.798;2023-02-19T15:05:05;1.23;;;0.80;;
9388;SDS011;4734;52.778;6.798;2023-02-19T15:07:59;1.42;;;0.80;;
9388;SDS011;4734;52.778;6.798;2023-02-19T15:10:46;0.85;;;0.60;;
9388;SDS011;4734;52.778;6.798;2023-02-19T15:13:32;1.17;;;0.90;;
9388;SDS011;4734;52.778;6.798;2023-02-19T15:16:18;1.98;;;0.80;;
9388;SDS011;4734;52.778;6.798;2023-02-19T15:19:06;1.08;;;0.60;;
9388;SDS011;4734;52.778;6.798;2023-02-19T15:21:52;2.45;;;0.80;;
9388;SDS011;4734;52.778;6.798;2023-02-19T15:24:42;1.67;;;0.80;;
9388;SDS011;4734;52.778;6.798;2023-02-19T15:27:28;2.80;;;0.95;;
9388;SDS011;4734;52.778;6.798;2023-02-19T15:30:17;0.60;;;0.60;;
9388;SDS011;4734;52.778;6.798;2023-02-19T15:33:12;2.45;;;0.68;;
9388;SDS011;4734;52.778;6.798;2023-02-19T15:36:01;1.45;;;0.75;;
9388;SDS011;4734;52.778;6.798;2023-02-19T15:38:51;1.48;;;0.77;;
9388;SDS011;4734;52.778;6.798;2023-02-19T15:41:38;0.98;;;0.90;;
9388;SDS011;4734;52.778;6.798;2023-02-19T15:44:36;2.28;;;0.95;;
9388;SDS011;4734;52.778;6.798;2023-02-19T15:47:24;2.15;;;0.98;;
9388;SDS011;4734;52.778;6.798;2023-02-19T15:50:11;1.05;;;0.90;;
9388;SDS011;4734;52.778;6.798;2023-02-19T15:53:00;0.65;;;0.60;;
9388;SDS011;4734;52.778;6.798;2023-02-19T15:55:49;0.98;;;0.73;;
9388;SDS011;4734;52.778;6.798;2023-02-19T15:58:37;0.80;;;0.80;;
9388;SDS011;4734;52.778;6.798;2023-02-19T16:01:25;1.30;;;1.20;;
9388;SDS011;4734;52.778;6.798;2023-02-19T16:04:12;0.70;;;0.70;;
9388;SDS011;4734;52.778;6.798;2023-02-19T16:06:59;1.02;;;0.85;;
9388;SDS011;4734;52.778;6.798;2023-02-19T16:09:46;1.02;;;0.95;;
9388;SDS011;4734;52.778;6.798;2023-02-19T16:12:32;1.60;;;0.93;;
9388;SDS011;4734;52.778;6.798;2023-02-19T16:15:18;2.75;;;1.00;;
9388;SDS011;4734;52.778;6.798;2023-02-19T16:18:04;1.08;;;0.90;;
9388;SDS011;4734;52.778;6.798;2023-02-19T16:20:50;0.95;;;0.93;;
9388;SDS011;4734;52.778;6.798;2023-02-19T16:23:40;1.00;;;1.00;;
9388;SDS011;4734;52.778;6.798;2023-02-19T16:26:27;0.95;;;0.88;;
9388;SDS011;4734;52.778;6.798;2023-02-19T16:29:15;1.10;;;0.93;;
9388;SDS011;4734;52.778;6.798;2023-02-19T16:32:03;1.10;;;0.90;;
9388;SDS011;4734;52.778;6.798;2023-02-19T16:34:50;0.70;;;0.63;;
9388;SDS011;4734;52.778;6.798;2023-02-19T16:37:36;1.55;;;0.90;;
9388;SDS011;4734;52.778;6.798;2023-02-19T16:43:29;3.63;;;1.52;;
9388;SDS011;4734;52.778;6.798;2023-02-19T16:46:15;1.40;;;1.05;;
9388;SDS011;4734;52.778;6.798;2023-02-19T16:49:01;1.17;;;1.10;;
9388;SDS011;4734;52.778;6.798;2023-02-19T16:51:47;1.30;;;1.20;;
9388;SDS011;4734;52.778;6.798;2023-02-19T16:54:33;2.40;;;1.20;;
9388;SDS011;4734;52.778;6.798;2023-02-19T16:57:18;2.10;;;0.80;;
9388;SDS011;4734;52.778;6.798;2023-02-19T17:00:06;0.90;;;0.90;;
9388;SDS011;4734;52.778;6.798;2023-02-19T17:02:54;2.28;;;1.10;;
9388;SDS011;4734;52.778;6.798;2023-02-19T17:05:41;3.42;;;1.27;;
9388;SDS011;4734;52.778;6.798;2023-02-19T17:08:28;1.15;;;0.88;;
9388;SDS011;4734;52.778;6.798;2023-02-19T17:11:16;1.73;;;1.00;;
9388;SDS011;4734;52.778;6.798;2023-02-19T17:14:02;1.10;;;0.95;;
9388;SDS011;4734;52.778;6.798;2023-02-19T17:16:49;2.38;;;1.25;;
9388;SDS011;4734;52.778;6.798;2023-02-19T17:19:35;1.65;;;1.10;;
9388;SDS011;4734;52.778;6.798;2023-02-19T17:22:22;1.75;;;1.40;;
9388;SDS011;4734;52.778;6.798;2023-02-19T17:25:07;3.15;;;1.20;;
9388;SDS011;4734;52.778;6.798;2023-02-19T17:27:53;1.83;;;1.10;;
9388;SDS011;4734;52.778;6.798;2023-02-19T17:30:39;4.10;;;1.30;;
9388;SDS011;4734;52.778;6.798;2023-02-19T17:33:26;2.20;;;1.27;;
9388;SDS011;4734;52.778;6.798;2023-02-19T17:36:15;1.38;;;1.27;;
9388;SDS011;4734;52.778;6.798;2023-02-19T17:39:01;1.15;;;1.05;;
9388;SDS011;4734;52.778;6.798;2023-02-19T17:41:47;3.53;;;1.50;;
9388;SDS011;4734;52.778;6.798;2023-02-19T17:44:33;1.52;;;1.42;;
9388;SDS011;4734;52.778;6.798;2023-02-19T17:47:19;1.13;;;1.05;;
9388;SDS011;4734;52.778;6.798;2023-02-19T17:50:08;2.33;;;1.23;;
9388;SDS011;4734;52.778;6.798;2023-02-19T17:52:55;2.45;;;1.40;;
9388;SDS011;4734;52.778;6.798;2023-02-19T17:55:41;2.40;;;1.30;;
9388;SDS011;4734;52.778;6.798;2023-02-19T17:58:27;3.35;;;1.40;;